< < Back
Terminal Aerodrome Forecast


Current Version              Previous Versions:   1  2  3  4  5  6  7  8  9  

Terminal Aerodrome Forecast

648
FTUS42 KFFC 261124
TAFFTY
TAF
KFTY 261124Z 2612/2712 24008KT P6SM SCT004 BKN012
     FM261300 28010KT P6SM BKN020
     FM261600 29014G24KT P6SM SCT050
     FM270200 32008KT P6SM FEW250
     FM270600 35006KT P6SM SKC=

Latest METAR

130
SAUS70 KWBC 261900 RRF
MTRFTY
METAR KFTY 261853Z 28014G20KT 10SM FEW055 FEW075 27/14 A2967 RMK AO2
SLP038 T02720139


USA.gov is the U.S. government's official web portal to all federal, state and local government web resources and services.